Time;durP1;ratioP1;P1;durP2;ratioP2;P2;SDS_P1;SDS_P2;PMS_P1;PMS_P2;Temp;Humidity;BMP_temperature;BMP_pressure;BME280_temperature;BME280_humidity;BME280_pressure;Samples;Min_cycle;Max_cycle;Signal;HPM_P1;HPM_P2
2021/06/23 09:12:28;;;;;;;15.38;2.83;;;;;;;36.34;32.12;98996.51;1834899;77;22109;-69
2021/06/23 09:15:03;;;;;;;9.10;2.90;;;;;;;36.63;31.64;99006.32;1870613;76;22094;-67
2021/06/23 09:17:37;;;;;;;12.58;2.62;;;;;;;36.49;31.11;98999.57;1870585;76;22094;-68
2021/06/23 09:20:14;;;;;;;15.72;3.50;;;;;;;36.08;31.85;99002.53;1855373;76;22102;-69
2021/06/23 09:22:54;;;;;;;11.95;3.27;;;;;;;35.58;32.89;98997.33;1869763;76;22323;-68
2021/06/23 09:25:44;;;;;;;14.78;3.35;;;;;;;35.47;33.15;99004.63;1827447;78;21146;-68
2021/06/23 09:28:23;;;;;;;16.25;3.17;;;;;;;35.58;33.38;98994.64;1889838;76;22130;-69
2021/06/23 09:30:59;;;;;;;13.40;3.00;;;;;;;35.56;33.12;98997.92;1854902;76;27926;-66
2021/06/23 09:33:39;;;;;;;10.93;2.80;;;;;;;35.47;33.37;98989.40;1869758;76;22070;-67
2021/06/23 09:36:14;;;;;;;10.10;2.95;;;;;;;35.32;33.84;98992.15;1854336;76;22094;-65
2021/06/23 09:38:55;;;;;;;12.07;3.02;;;;;;;35.25;33.92;98992.34;1850512;76;22124;-66
2021/06/23 09:41:35;;;;;;;11.50;2.90;;;;;;;35.39;33.85;98997.28;1856144;76;22166;-64
2021/06/23 09:44:12;;;;;;;8.15;2.52;;;;;;;35.42;33.84;99009.11;1851420;76;22690;-68
2021/06/23 09:46:57;;;;;;;7.55;2.67;;;;;;;35.38;33.68;99015.73;1730133;82;21196;-65
2021/06/23 09:49:34;;;;;;;12.25;3.02;;;;;;;35.28;34.12;99010.84;1870602;76;22496;-63
2021/06/23 09:52:14;;;;;;;9.88;3.40;;;;;;;34.99;34.89;99008.94;1889764;76;22264;-63
2021/06/23 09:55:01;;;;;;;11.40;2.87;;;;;;;34.90;34.94;99007.91;1861218;77;21118;-63
2021/06/23 09:57:40;;;;;;;9.85;3.22;;;;;;;34.71;35.33;99013.23;1870633;76;22220;-66
2021/06/23 10:00:14;;;;;;;10.23;3.80;;;;;;;34.60;35.88;99018.67;1889822;76;22089;-66
2021/06/23 10:02:54;;;;;;;7.22;3.35;;;;;;;34.47;36.26;99017.03;1889841;76;22247;-62
2021/06/23 10:05:31;;;;;;;10.30;2.90;;;;;;;34.43;36.53;99017.45;1870328;76;22075;-65
2021/06/23 10:08:09;;;;;;;10.75;3.30;;;;;;;34.22;35.83;99015.66;1854738;76;38403;-64
2021/06/23 10:10:56;;;;;;;12.20;3.25;;;;;;;34.06;36.45;99016.57;1736463;81;21271;-63
2021/06/23 10:13:32;;;;;;;15.20;3.90;;;;;;;34.02;36.96;99008.42;1854681;76;27918;-62
2021/06/23 10:16:12;;;;;;;9.00;2.60;;;;;;;34.28;36.67;99007.58;1869637;76;22248;-64
2021/06/23 10:18:49;;;;;;;12.18;3.60;;;;;;;34.48;36.09;99005.84;1873746;76;27920;-61
2021/06/23 10:21:24;;;;;;;9.93;3.02;;;;;;;34.61;35.71;99005.64;1870597;76;22063;-63
2021/06/23 10:24:01;;;;;;;12.65;3.27;;;;;;;34.59;36.00;99016.48;1889868;76;22525;-65
2021/06/23 10:26:49;;;;;;;6.62;2.80;;;;;;;34.39;36.37;99009.31;1860153;76;22679;-67
2021/06/23 10:29:30;;;;;;;10.70;3.45;;;;;;;33.91;36.30;99006.17;1870572;76;22161;-62
2021/06/23 10:32:08;;;;;;;12.00;3.33;;;;;;;33.56;36.84;99009.64;1870548;76;22090;-62
2021/06/23 10:34:44;;;;;;;12.60;3.08;;;;;;;33.45;38.05;99003.33;1889864;76;22586;-64
2021/06/23 10:37:21;;;;;;;11.20;3.62;;;;;;;33.45;38.62;98989.95;1881132;76;20223;-64
2021/06/23 10:39:56;;;;;;;14.25;3.50;;;;;;;33.43;38.83;98999.96;1852496;76;22278;-62
2021/06/23 10:42:32;;;;;;;12.07;3.80;;;;;;;33.40;38.75;99005.54;1854195;76;22096;-63
2021/06/23 10:45:17;;;;;;;14.38;4.30;;;;;;;33.38;39.20;99009.31;1813500;78;21564;-63
2021/06/23 10:47:56;;;;;;;12.78;3.33;;;;;;;33.39;39.80;99014.55;1857519;76;22093;-63
2021/06/23 10:50:34;;;;;;;11.08;3.87;;;;;;;33.39;39.75;99002.52;1889840;76;22501;-62
2021/06/23 10:53:34;;;;;;;15.48;3.10;;;;;;;33.44;39.75;99004.81;1791629;80;21146;-63
2021/06/23 10:56:13;;;;;;;13.72;4.30;;;;;;;33.65;39.72;98996.84;1870520;76;22475;-63
2021/06/23 10:58:48;;;;;;;10.08;3.37;;;;;;;33.59;39.21;99014.77;1855465;76;22160;-64
2021/06/23 11:01:23;;;;;;;10.38;3.92;;;;;;;33.47;39.28;99000.05;1852955;76;22151;-62
2021/06/23 11:04:09;;;;;;;10.78;3.08;;;;;;;33.42;39.01;99002.25;1730365;81;21184;-65
2021/06/23 11:06:46;;;;;;;13.53;4.05;;;;;;;33.50;39.72;98995.77;1870613;76;22148;-63
2021/06/23 11:09:28;;;;;;;11.08;3.45;;;;;;;33.66;39.63;98991.38;1870614;76;22587;-62
2021/06/23 11:12:04;;;;;;;13.13;3.58;;;;;;;33.84;38.72;98996.13;1889866;76;22086;-61
2021/06/23 11:14:50;;;;;;;16.90;3.92;;;;;;;33.89;38.00;99012.64;1864396;76;22179;-59
2021/06/23 11:17:31;;;;;;;15.88;3.87;;;;;;;33.68;37.84;99009.47;1870493;76;22485;-64
2021/06/23 11:20:23;;;;;;;15.08;4.67;;;;;;;33.72;38.20;99007.40;1870604;76;22717;-64
2021/06/23 11:22:58;;;;;;;23.75;4.50;;;;;;;33.84;36.67;99005.03;1870428;76;22264;-65
2021/06/23 11:25:35;;;;;;;20.35;3.98;;;;;;;33.90;35.81;99011.19;1869225;76;22324;-63
2021/06/23 11:28:14;;;;;;;21.52;5.10;;;;;;;33.98;36.20;99007.02;1871808;76;27988;-64
2021/06/23 11:31:03;;;;;;;15.63;4.45;;;;;;;34.05;35.65;99010.87;1889309;76;22259;-64
2021/06/23 11:33:59;;;;;;;33.78;6.58;;;;;;;34.14;34.61;99030.18;1884124;76;22351;-64
2021/06/23 11:36:42;;;;;;;23.12;5.15;;;;;;;34.24;33.72;99012.83;1870674;76;22161;-64
2021/06/23 11:39:30;;;;;;;;;;;;;;;;;;;;;
2021/06/23 11:41:56;;;;;;;37.53;5.92;;;;;;;34.48;32.50;99017.91;1870570;76;22301;-62
2021/06/23 11:44:31;;;;;;;43.55;10.00;;;;;;;34.52;31.92;99021.99;1870696;76;22353;-64
2021/06/23 11:47:07;;;;;;;27.75;6.37;;;;;;;34.54;31.89;99028.08;1889880;76;22504;-64
2021/06/23 11:49:42;;;;;;;41.68;8.90;;;;;;;34.45;33.39;99028.40;1870605;76;22659;-65
2021/06/23 11:52:17;;;;;;;31.53;6.40;;;;;;;34.46;33.89;99033.27;1854840;76;28074;-64
2021/06/23 11:54:52;;;;;;;35.00;6.97;;;;;;;34.48;34.11;99023.27;1870592;76;22086;-65
2021/06/23 11:57:26;;;;;;;23.05;4.97;;;;;;;34.49;34.49;99026.29;1889843;76;22066;-64
2021/06/23 12:00:01;;;;;;;30.62;6.72;;;;;;;34.60;34.73;99023.53;1870600;76;22485;-64
2021/06/23 12:02:37;;;;;;;27.42;6.25;;;;;;;34.67;34.79;99020.68;1870309;76;22079;-63
2021/06/23 12:05:12;;;;;;;25.72;5.67;;;;;;;34.68;35.02;99030.44;1889988;76;22623;-65
2021/06/23 12:07:47;;;;;;;29.37;6.70;;;;;;;34.71;34.90;99030.16;1848651;76;28434;-64
2021/06/23 12:10:25;;;;;;;25.60;4.42;;;;;;;34.76;34.99;99027.08;1854540;76;22507;-64
2021/06/23 12:13:00;;;;;;;21.50;5.12;;;;;;;34.85;35.56;99020.04;1847051;76;22128;-63
2021/06/23 12:15:36;;;;;;;29.90;5.78;;;;;;;34.77;35.90;99016.70;1836303;76;28194;-63
2021/06/23 12:18:12;;;;;;;30.10;6.28;;;;;;;34.90;35.83;99011.09;1850764;77;22254;-64
2021/06/23 12:20:58;;;;;;;29.82;6.85;;;;;;;34.85;35.82;99014.67;1804528;79;21162;-65
2021/06/23 12:23:35;;;;;;;35.98;7.20;;;;;;;34.88;34.89;99013.05;1870500;76;22091;-64
2021/06/23 12:26:09;;;;;;;37.65;7.65;;;;;;;34.96;34.04;99026.65;1867732;76;22256;-65
2021/06/23 12:28:55;;;;;;;37.55;6.92;;;;;;;34.99;32.34;99024.53;1795767;78;21182;-64
2021/06/23 12:31:30;;;;;;;35.78;8.70;;;;;;;35.11;32.38;99018.59;1860050;76;22279;-64
2021/06/23 12:34:11;;;;;;;40.45;7.33;;;;;;;35.14;32.37;99040.28;1890072;76;22146;-64
2021/06/23 12:36:50;;;;;;;49.83;8.18;;;;;;;35.04;32.50;99028.14;1889883;76;22223;-66
2021/06/23 12:39:25;;;;;;;42.65;7.22;;;;;;;35.06;32.32;99028.86;1858182;76;22198;-66
2021/06/23 12:42:01;;;;;;;43.40;8.68;;;;;;;35.15;32.47;99025.37;1856299;76;22536;-64
2021/06/23 12:44:36;;;;;;;39.85;8.43;;;;;;;35.13;32.07;99020.63;1835889;76;27993;-64
2021/06/23 12:47:13;;;;;;;31.23;7.05;;;;;;;35.09;32.10;99020.56;1860485;76;20172;-65
2021/06/23 12:49:47;;;;;;;48.15;8.28;;;;;;;35.05;32.03;99019.10;1867015;76;22269;-65
2021/06/23 12:52:22;;;;;;;32.58;8.00;;;;;;;35.06;32.41;99012.77;1870719;76;22140;-65
2021/06/23 12:54:57;;;;;;;35.58;7.35;;;;;;;35.21;32.44;99015.44;1870646;76;22083;-64
2021/06/23 12:57:32;;;;;;;32.10;6.72;;;;;;;35.23;32.24;99014.78;1862439;76;22571;-66
2021/06/23 13:00:11;;;;;;;41.02;7.85;;;;;;;35.29;31.72;99013.88;1847029;76;28101;-67
2021/06/23 13:02:46;;;;;;;32.60;6.65;;;;;;;35.40;31.26;99017.28;1849294;76;22084;-66
2021/06/23 13:05:33;;;;;;;34.18;6.62;;;;;;;35.44;31.41;99019.18;1826614;78;21152;-63
2021/06/23 13:08:13;;;;;;;39.10;8.90;;;;;;;35.48;31.39;99023.29;1888425;76;22612;-64
2021/06/23 13:10:48;;;;;;;40.58;7.22;;;;;;;35.43;31.03;99026.89;1889895;76;22263;-65
2021/06/23 13:13:22;;;;;;;29.60;6.45;;;;;;;35.35;31.02;99038.33;1870694;76;22722;-65
2021/06/23 13:16:00;;;;;;;37.00;7.90;;;;;;;35.25;31.53;99031.25;1854580;76;27954;-64
2021/06/23 13:18:35;;;;;;;41.92;7.15;;;;;;;35.29;31.73;99028.62;1870588;76;22663;-64
2021/06/23 13:21:15;;;;;;;35.75;7.60;;;;;;;35.25;30.77;99033.94;1869701;76;22248;-63
2021/06/23 13:23:51;;;;;;;39.83;7.05;;;;;;;35.11;31.44;99023.97;1889876;76;22528;-63
2021/06/23 13:26:25;;;;;;;34.38;7.28;;;;;;;35.08;31.87;99029.58;1870599;76;22051;-64
2021/06/23 13:29:11;;;;;;;39.00;6.87;;;;;;;34.89;32.50;99026.84;1827788;77;21142;-64
2021/06/23 13:31:52;;;;;;;39.38;8.13;;;;;;;34.94;32.46;99019.23;1869665;76;22078;-64
2021/06/23 13:34:27;;;;;;;36.83;6.97;;;;;;;34.83;32.75;99042.95;1870590;76;22252;-64
2021/06/23 13:37:05;;;;;;;29.45;5.92;;;;;;;34.76;32.94;99037.30;1889907;76;22049;-64
2021/06/23 13:39:40;;;;;;;30.60;7.22;;;;;;;34.77;32.95;99044.35;1870609;76;22043;-64
2021/06/23 13:42:15;;;;;;;34.20;6.20;;;;;;;34.55;33.76;99031.98;1870524;76;22071;-63
2021/06/23 13:44:49;;;;;;;29.32;6.40;;;;;;;34.36;34.29;99034.05;1870692;76;22461;-65
2021/06/23 13:47:25;;;;;;;31.40;6.00;;;;;;;34.35;34.46;99042.23;1870564;76;22038;-65
2021/06/23 13:50:15;;;;;;;41.35;6.83;;;;;;;34.30;34.91;99041.30;1827784;77;21272;-63
2021/06/23 13:52:51;;;;;;;28.25;6.30;;;;;;;34.34;35.37;99052.09;1870549;76;22094;-63
2021/06/23 13:55:26;;;;;;;32.05;6.45;;;;;;;34.24;35.95;99045.82;1870609;76;22301;-64
2021/06/23 13:58:03;;;;;;;29.72;7.90;;;;;;;34.23;35.94;99049.49;1870583;76;22063;-64
2021/06/23 14:00:46;;;;;;;21.37;5.40;;;;;;;34.18;36.44;99050.38;1889831;76;22078;-64
2021/06/23 14:03:21;;;;;;;26.90;6.15;;;;;;;34.07;36.31;99047.28;1889981;76;22240;-66
2021/06/23 14:06:02;;;;;;;39.80;7.30;;;;;;;34.02;36.40;99050.81;1889897;76;22073;-63
2021/06/23 14:08:36;;;;;;;41.77;6.80;;;;;;;33.96;36.87;99059.84;1870612;76;22479;-63
2021/06/23 14:11:11;;;;;;;30.05;6.47;;;;;;;33.76;37.06;99059.68;1889952;76;22215;-64
2021/06/23 14:13:46;;;;;;;24.37;5.80;;;;;;;33.63;36.78;99057.67;1889864;76;22204;-65
2021/06/23 14:16:20;;;;;;;24.85;5.28;;;;;;;33.46;37.00;99058.56;1870588;76;22244;-64
2021/06/23 14:18:55;;;;;;;30.17;5.10;;;;;;;33.36;37.98;99054.95;1870631;76;22615;-64
2021/06/23 14:21:36;;;;;;;26.12;6.37;;;;;;;33.19;38.42;99064.83;1869801;76;22070;-64
2021/06/23 14:24:22;;;;;;;35.33;5.70;;;;;;;33.03;38.98;99059.39;1760537;81;21153;-63
2021/06/23 14:26:56;;;;;;;35.35;6.50;;;;;;;33.02;39.48;99067.02;1870569;76;22252;-64
2021/06/23 14:29:32;;;;;;;40.58;6.40;;;;;;;32.88;39.46;99089.15;1890080;76;22351;-62
2021/06/23 14:32:12;;;;;;;26.97;5.80;;;;;;;32.68;40.14;99077.36;1850741;77;22320;-63
2021/06/23 14:34:47;;;;;;;29.05;5.85;;;;;;;32.60;40.49;99060.09;1889889;76;22231;-64
2021/06/23 14:37:22;;;;;;;28.40;4.95;;;;;;;32.64;40.45;99066.91;1870591;76;22220;-65
2021/06/23 14:39:56;;;;;;;31.65;5.45;;;;;;;32.67;40.10;99063.61;1870598;76;22620;-64
2021/06/23 14:42:32;;;;;;;37.17;6.87;;;;;;;32.61;39.30;99060.45;1870548;76;22635;-64
2021/06/23 14:45:08;;;;;;;31.55;5.42;;;;;;;32.54;39.29;99065.94;1870632;76;20291;-62
2021/06/23 14:47:43;;;;;;;26.85;5.42;;;;;;;32.47;38.57;99072.69;1870606;76;22220;-65
2021/06/23 14:50:19;;;;;;;24.00;5.05;;;;;;;32.42;37.88;99057.50;1870550;76;22220;-64
2021/06/23 14:52:54;;;;;;;24.75;5.15;;;;;;;32.38;37.50;99065.38;1870592;76;22282;-64
2021/06/23 14:55:29;;;;;;;27.02;4.75;;;;;;;32.40;37.06;99063.45;1870670;76;22252;-65
2021/06/23 14:58:04;;;;;;;33.33;6.60;;;;;;;32.41;37.16;99062.46;1873974;76;29490;-65
2021/06/23 15:00:50;;;;;;;29.87;5.72;;;;;;;32.38;37.61;99071.56;1861075;77;21264;-64
2021/06/23 15:03:24;;;;;;;32.08;5.70;;;;;;;32.50;37.85;99064.46;1870656;76;22212;-65
2021/06/23 15:06:05;;;;;;;30.40;5.37;;;;;;;32.53;37.99;99064.22;1870535;76;22043;-64
2021/06/23 15:08:40;;;;;;;29.72;5.62;;;;;;;32.58;37.99;99073.21;1870631;76;22094;-65
2021/06/23 15:11:21;;;;;;;33.55;5.30;;;;;;;32.56;37.96;99066.64;1869692;76;22169;-65
2021/06/23 15:14:01;;;;;;;27.87;6.92;;;;;;;32.58;37.84;99066.04;1869851;76;22688;-65
2021/06/23 15:16:36;;;;;;;30.82;6.15;;;;;;;32.51;39.28;99068.82;1870518;76;22567;-65
2021/06/23 15:19:12;;;;;;;31.60;6.75;;;;;;;32.39;40.05;99063.09;1854583;76;27907;-64
2021/06/23 15:21:47;;;;;;;33.05;7.17;;;;;;;32.31;40.24;99069.48;1870633;76;22047;-64
2021/06/23 15:24:22;;;;;;;28.83;6.17;;;;;;;32.14;40.14;99059.64;1870592;76;22228;-64
2021/06/23 15:26:57;;;;;;;34.63;6.72;;;;;;;32.07;40.33;99070.41;1870600;76;22259;-63
2021/06/23 15:29:31;;;;;;;28.67;6.05;;;;;;;31.96;40.74;99061.05;1870579;76;22644;-64
2021/06/23 15:32:08;;;;;;;34.55;6.67;;;;;;;31.88;40.94;99059.39;1870586;76;22535;-65
2021/06/23 15:34:43;;;;;;;29.20;5.58;;;;;;;31.83;41.32;99065.09;1870602;76;22195;-65
2021/06/23 15:37:18;;;;;;;35.33;6.73;;;;;;;31.76;41.58;99059.36;1854795;76;27938;-65
2021/06/23 15:39:53;;;;;;;37.70;6.53;;;;;;;31.77;41.42;99059.71;1870534;76;22164;-64
2021/06/23 15:42:28;;;;;;;22.77;5.55;;;;;;;31.77;41.67;99066.38;1870578;76;22449;-64
2021/06/23 15:45:14;;;;;;;41.65;6.80;;;;;;;31.73;41.61;99072.94;1827496;78;21134;-65
2021/06/23 15:47:51;;;;;;;33.02;7.28;;;;;;;31.85;41.78;99068.97;1870517;76;22055;-65
2021/06/23 15:50:28;;;;;;;38.15;7.42;;;;;;;31.90;41.96;99072.14;1870623;76;20212;-65
2021/06/23 15:53:03;;;;;;;36.60;7.03;;;;;;;31.86;42.35;99070.69;1870586;76;22481;-64
2021/06/23 15:55:49;;;;;;;42.05;6.85;;;;;;;31.79;42.68;99080.47;1827520;78;21130;-64
2021/06/23 15:58:30;;;;;;;36.65;8.23;;;;;;;31.75;43.48;99077.69;1870578;76;22294;-65
2021/06/23 16:01:11;;;;;;;29.12;6.30;;;;;;;31.62;44.28;99080.03;1889845;76;22709;-65
2021/06/23 16:03:45;;;;;;;33.40;6.40;;;;;;;31.52;44.95;99078.52;1870614;76;22136;-62
2021/06/23 16:06:20;;;;;;;37.05;8.58;;;;;;;31.44;45.77;99074.23;1889909;76;22112;-64
2021/06/23 16:08:55;;;;;;;41.30;7.72;;;;;;;31.34;46.74;99073.53;1870566;76;22299;-66
2021/06/23 16:11:30;;;;;;;31.00;6.25;;;;;;;31.24;47.72;99079.66;1889943;76;22649;-65
2021/06/23 16:14:07;;;;;;;28.98;6.72;;;;;;;31.15;48.29;99079.86;1870565;76;22311;-64
2021/06/23 16:16:43;;;;;;;36.35;7.33;;;;;;;31.09;49.10;99085.16;1889811;76;22709;-65
2021/06/23 16:19:29;;;;;;;31.95;6.25;;;;;;;31.00;49.09;99078.29;1861062;77;21160;-65
2021/06/23 16:22:04;;;;;;;40.35;7.58;;;;;;;30.98;47.73;99081.54;1854626;76;27910;-65
2021/06/23 16:24:40;;;;;;;24.25;6.17;;;;;;;30.98;44.76;99085.54;1870675;76;22656;-63
2021/06/23 16:27:28;;;;;;;37.30;6.47;;;;;;;30.92;44.71;99089.02;1827540;78;21122;-65
2021/06/23 16:30:06;;;;;;;35.80;5.83;;;;;;;30.97;44.20;99089.18;1870599;76;22535;-64
2021/06/23 16:32:41;;;;;;;34.88;7.15;;;;;;;30.95;43.86;99098.60;1870579;76;22323;-65
2021/06/23 16:35:28;;;;;;;32.05;5.85;;;;;;;30.88;45.67;99102.17;1827435;78;21138;-64
2021/06/23 16:38:04;;;;;;;38.67;6.47;;;;;;;30.82;47.04;99097.77;1870410;76;22582;-64
2021/06/23 16:40:39;;;;;;;38.55;6.35;;;;;;;30.71;48.15;99099.84;1870564;76;22302;-66
2021/06/23 16:43:14;;;;;;;32.00;6.92;;;;;;;30.62;48.32;99105.80;1870594;76;22306;-66
2021/06/23 16:45:49;;;;;;;30.85;6.42;;;;;;;30.53;47.80;99106.42;1870524;76;22139;-65
2021/06/23 16:48:24;;;;;;;34.30;6.53;;;;;;;30.48;46.31;99098.74;1870605;76;22595;-65
2021/06/23 16:51:10;;;;;;;34.45;7.37;;;;;;;30.41;46.48;99095.67;1827485;77;21130;-65
2021/06/23 16:53:45;;;;;;;31.73;7.25;;;;;;;30.40;46.34;99089.10;1854536;76;27998;-63
2021/06/23 16:56:22;;;;;;;44.00;7.90;;;;;;;30.37;46.41;99093.31;1870527;76;22562;-63
2021/06/23 16:58:58;;;;;;;37.88;7.03;;;;;;;30.32;46.67;99097.62;1870473;76;22164;-65
2021/06/23 17:01:33;;;;;;;36.40;6.78;;;;;;;30.28;47.03;99093.48;1870526;76;22298;-63
2021/06/23 17:04:14;;;;;;;48.35;7.22;;;;;;;30.20;47.16;99094.42;1869712;76;22600;-65
2021/06/23 17:06:55;;;;;;;44.77;8.03;;;;;;;30.14;47.52;99096.19;1870586;76;22141;-65
2021/06/23 17:09:29;;;;;;;42.45;8.43;;;;;;;30.04;47.49;99092.80;1870609;76;22172;-64
2021/06/23 17:12:05;;;;;;;47.62;8.48;;;;;;;29.99;47.10;99098.91;1854818;76;28092;-67
2021/06/23 17:14:40;;;;;;;38.45;8.35;;;;;;;29.98;47.39;99096.37;1870583;76;22729;-64
2021/06/23 17:17:21;;;;;;;51.25;7.80;;;;;;;29.93;46.78;99099.81;1869731;76;22251;-64
2021/06/23 17:19:56;;;;;;;38.63;7.33;;;;;;;29.90;46.41;99106.20;1870645;76;22132;-65
2021/06/23 17:22:38;;;;;;;33.08;7.53;;;;;;;29.87;46.42;99097.09;1889799;76;22599;-63
2021/06/23 17:25:15;;;;;;;52.75;9.83;;;;;;;29.82;46.16;99096.06;1870416;76;22144;-64
2021/06/23 17:27:50;;;;;;;46.42;8.83;;;;;;;29.79;45.75;99096.72;1854626;76;27897;-65
2021/06/23 17:30:27;;;;;;;41.48;9.23;;;;;;;29.79;45.81;99099.38;1870411;76;22144;-64
2021/06/23 17:33:03;;;;;;;47.20;9.23;;;;;;;29.76;45.91;99110.23;1873853;76;28294;-64
2021/06/23 17:35:39;;;;;;;53.15;10.05;;;;;;;29.76;45.96;99103.59;1854730;76;27945;-63
2021/06/23 17:38:13;;;;;;;56.98;10.65;;;;;;;29.74;45.97;99097.50;1854834;76;28095;-65
2021/06/23 17:40:48;;;;;;;57.20;8.98;;;;;;;29.74;45.84;99108.14;1870763;76;22262;-65
2021/06/23 17:43:26;;;;;;;39.85;8.98;;;;;;;29.71;45.59;99097.72;1870758;76;22121;-64
2021/06/23 17:46:01;;;;;;;48.87;9.75;;;;;;;29.68;45.83;99091.27;1889948;76;22128;-67
2021/06/23 17:48:39;;;;;;;50.98;10.60;;;;;;;29.62;45.76;99091.17;1889922;76;22542;-65
2021/06/23 17:51:15;;;;;;;59.98;11.00;;;;;;;29.54;45.67;99096.99;1870592;76;22136;-66
2021/06/23 17:54:01;;;;;;;70.22;11.93;;;;;;;29.46;44.14;99095.77;1827701;78;21562;-65
2021/06/23 17:56:37;;;;;;;62.40;11.80;;;;;;;29.50;44.00;99094.14;1873837;76;27913;-65
2021/06/23 17:59:11;;;;;;;69.10;12.13;;;;;;;29.50;43.31;99107.92;1870736;76;22137;-65
2021/06/23 18:01:47;;;;;;;69.25;13.30;;;;;;;29.48;43.08;99109.82;1873854;76;27917;-64
2021/06/23 18:04:21;;;;;;;74.60;14.43;;;;;;;29.48;43.27;99114.66;1889933;76;22603;-66
2021/06/23 18:07:07;;;;;;;98.10;14.93;;;;;;;29.37;43.49;99117.17;1861435;77;21130;-64
2021/06/23 18:09:42;;;;;;;76.30;14.83;;;;;;;29.35;43.90;99113.27;1854799;76;28809;-65
2021/06/23 18:12:18;;;;;;;78.83;13.43;;;;;;;29.33;44.12;99109.00;1854722;76;27924;-66
2021/06/23 18:14:53;;;;;;;76.75;15.15;;;;;;;29.32;44.43;99120.11;1870634;76;22128;-65
2021/06/23 18:17:48;;;;;;;74.67;11.57;;;;;;;29.28;44.85;99121.73;1870344;75;22261;-65
2021/06/23 18:20:40;;;;;;;78.72;14.18;;;;;;;29.21;45.08;99135.91;1854763;76;27924;-65
2021/06/23 18:23:21;;;;;;;75.87;13.78;;;;;;;29.17;45.63;99133.89;1869708;76;22249;-64
2021/06/23 18:25:56;;;;;;;77.87;13.13;;;;;;;29.10;46.04;99137.03;1889919;76;22140;-66
2021/06/23 18:28:51;;;;;;;63.90;12.73;;;;;;;29.04;46.37;99141.38;1871904;75;22628;-65
2021/06/23 18:31:26;;;;;;;52.17;10.75;;;;;;;29.01;46.61;99139.77;1870607;76;22144;-65
2021/06/23 18:34:00;;;;;;;74.42;11.20;;;;;;;28.97;47.13;99136.91;1870611;76;22216;-65
2021/06/23 18:36:37;;;;;;;71.53;13.05;;;;;;;28.95;47.08;99149.43;1870634;76;22148;-65
2021/06/23 18:39:12;;;;;;;62.53;11.50;;;;;;;28.92;47.36;99142.98;1870626;76;22112;-65
2021/06/23 18:41:47;;;;;;;63.87;11.40;;;;;;;28.88;47.57;99142.81;1889904;76;22147;-65
2021/06/23 18:44:21;;;;;;;62.03;10.15;;;;;;;28.82;47.84;99149.81;1870662;76;22145;-65
2021/06/23 18:46:56;;;;;;;58.60;10.43;;;;;;;28.74;48.11;99157.77;1889955;76;22160;-65
2021/06/23 18:49:32;;;;;;;61.92;11.78;;;;;;;28.69;48.42;99153.21;1854614;76;38280;-64
2021/06/23 18:52:07;;;;;;;52.58;10.90;;;;;;;28.66;48.63;99146.77;1870660;76;22548;-64
2021/06/23 18:54:52;;;;;;;75.28;10.50;;;;;;;28.57;48.92;99160.58;1827669;77;21568;-65
2021/06/23 18:57:27;;;;;;;51.05;10.28;;;;;;;28.54;48.90;99148.83;1889917;76;22132;-65
2021/06/23 19:00:13;;;;;;;54.42;9.08;;;;;;;28.48;49.29;99159.83;1869783;76;22157;-64
2021/06/23 19:02:49;;;;;;;68.22;12.45;;;;;;;28.41;49.56;99161.95;1870671;76;22172;-63
2021/06/23 19:05:27;;;;;;;58.90;9.90;;;;;;;28.35;49.68;99164.50;1890022;76;22171;-65
2021/06/23 19:08:03;;;;;;;56.28;11.03;;;;;;;28.32;49.82;99162.51;1889938;76;22140;-64
2021/06/23 19:10:38;;;;;;;51.05;10.65;;;;;;;28.27;50.11;99165.91;1870555;76;22160;-65
2021/06/23 19:13:14;;;;;;;70.20;12.03;;;;;;;28.25;50.47;99171.30;1854640;76;27933;-64
2021/06/23 19:15:48;;;;;;;59.65;10.53;;;;;;;28.24;50.65;99169.59;1870622;76;22140;-64
2021/06/23 19:18:24;;;;;;;51.53;10.15;;;;;;;28.21;50.79;99164.44;1870627;76;22137;-63
2021/06/23 19:20:59;;;;;;;48.52;10.40;;;;;;;28.15;50.86;99182.06;1870523;76;22136;-64
2021/06/23 19:23:54;;;;;;;58.38;10.43;;;;;;;28.11;51.01;99185.83;1870173;75;22217;-65
2021/06/23 19:26:30;;;;;;;59.05;12.00;;;;;;;28.07;50.98;99183.83;1870521;76;20101;-66
2021/06/23 19:29:05;;;;;;;49.33;10.05;;;;;;;28.06;51.31;99185.23;1889943;76;22582;-64
2021/06/23 19:31:41;;;;;;;60.17;11.73;;;;;;;28.00;51.42;99179.81;1854926;76;27924;-65
2021/06/23 19:34:16;;;;;;;52.85;12.35;;;;;;;27.98;51.60;99191.45;1871004;76;22117;-65
2021/06/23 19:36:50;;;;;;;57.95;10.32;;;;;;;27.92;51.65;99190.86;1870725;76;22600;-64
2021/06/23 19:39:27;;;;;;;53.40;12.47;;;;;;;27.89;51.85;99182.23;1870535;76;20097;-65
2021/06/23 19:42:15;;;;;;;67.45;12.53;;;;;;;27.80;52.02;99184.89;1827798;77;21557;-64
2021/06/23 19:44:50;;;;;;;61.85;11.12;;;;;;;27.78;52.16;99193.39;1870648;76;22552;-64
2021/06/23 19:47:26;;;;;;;68.55;11.83;;;;;;;27.73;52.53;99198.10;1870652;76;22137;-65
2021/06/23 19:50:15;;;;;;;59.67;10.78;;;;;;;27.65;52.63;99185.75;1827553;78;21142;-64
2021/06/23 19:52:52;;;;;;;63.83;11.88;;;;;;;27.64;53.07;99189.35;1889899;76;22535;-65
2021/06/23 19:55:38;;;;;;;61.53;11.93;;;;;;;27.57;53.35;99178.70;1889981;76;22554;-65
2021/06/23 19:58:16;;;;;;;54.40;10.80;;;;;;;27.50;53.67;99196.73;1870651;76;22548;-63
2021/06/23 20:00:53;;;;;;;73.25;12.37;;;;;;;27.45;53.83;99191.70;1889927;76;22135;-65
2021/06/23 20:03:29;;;;;;;56.65;10.53;;;;;;;27.41;54.13;99190.63;1889963;76;22123;-64
2021/06/23 20:06:04;;;;;;;72.53;12.58;;;;;;;27.36;54.37;99190.87;1889916;76;22108;-64
2021/06/23 20:08:48;;;;;;;71.07;15.68;;;;;;;27.30;54.56;99181.94;1869889;76;22133;-65
2021/06/23 20:11:23;;;;;;;57.20;10.78;;;;;;;27.25;54.80;99179.53;1870486;76;22145;-65
2021/06/23 20:13:58;;;;;;;69.40;12.65;;;;;;;27.21;55.08;99178.45;1854693;76;27910;-64
2021/06/23 20:16:34;;;;;;;70.10;12.47;;;;;;;27.19;55.07;99181.64;1889929;76;22138;-65
2021/06/23 20:19:09;;;;;;;64.70;11.80;;;;;;;27.15;55.33;99182.26;1889952;76;22159;-64
2021/06/23 20:21:44;;;;;;;66.12;11.35;;;;;;;27.13;55.47;99184.60;1890050;76;22120;-64
2021/06/23 20:24:19;;;;;;;61.13;11.85;;;;;;;27.07;55.76;99183.11;1870691;76;22117;-64
2021/06/23 20:26:53;;;;;;;51.85;11.38;;;;;;;27.01;55.96;99188.27;1870779;76;22113;-66
2021/06/23 20:29:30;;;;;;;60.83;10.98;;;;;;;26.98;56.14;99186.27;1870461;76;20101;-65
2021/06/23 20:32:06;;;;;;;64.92;12.03;;;;;;;26.93;56.37;99197.10;1854616;76;38470;-65
2021/06/23 20:34:41;;;;;;;64.15;11.08;;;;;;;26.92;56.52;99187.90;1870628;76;20097;-62
2021/06/23 20:37:17;;;;;;;61.05;11.93;;;;;;;26.89;56.54;99198.66;1873877;76;28298;-64
2021/06/23 20:39:53;;;;;;;49.67;10.25;;;;;;;26.90;56.61;99191.13;1870535;76;22172;-64
2021/06/23 20:42:39;;;;;;;66.65;12.28;;;;;;;26.82;56.77;99195.49;1827789;78;21139;-64
2021/06/23 20:45:17;;;;;;;62.83;12.55;;;;;;;26.83;56.97;99191.89;1873881;76;28127;-64
2021/06/23 20:47:52;;;;;;;50.03;11.50;;;;;;;26.82;57.13;99191.05;1870541;76;22115;-65
2021/06/23 20:50:28;;;;;;;68.87;11.73;;;;;;;26.80;57.29;99189.42;1870591;76;22164;-64
2021/06/23 20:53:03;;;;;;;52.67;10.70;;;;;;;26.76;57.43;99185.20;1870599;76;22559;-64
2021/06/23 20:55:50;;;;;;;59.88;11.75;;;;;;;26.68;57.49;99183.42;1827594;77;21134;-64
2021/06/23 20:58:25;;;;;;;55.60;12.10;;;;;;;26.69;57.63;99190.42;1870724;76;22116;-65
2021/06/23 21:01:00;;;;;;;55.63;9.68;;;;;;;26.63;57.83;99191.13;1870584;76;22576;-65
2021/06/23 21:03:35;;;;;;;70.45;12.10;;;;;;;26.60;58.21;99191.29;1870686;76;22145;-64
2021/06/23 21:06:11;;;;;;;68.28;13.48;;;;;;;26.58;58.37;99198.92;1854698;76;27947;-65
2021/06/23 21:08:51;;;;;;;63.23;10.55;;;;;;;26.59;58.57;99208.59;1870674;76;22176;-65
2021/06/23 21:11:44;;;;;;;61.83;13.25;;;;;;;26.57;58.59;99199.39;1870712;76;22175;-64
2021/06/23 21:14:22;;;;;;;50.95;10.53;;;;;;;26.54;58.68;99200.87;1889956;76;22579;-65
2021/06/23 21:17:14;;;;;;;58.75;11.83;;;;;;;26.47;58.74;99198.59;1861496;77;21269;-63
2021/06/23 21:19:49;;;;;;;75.70;11.90;;;;;;;26.50;58.88;99195.31;1870591;76;23749;-64
2021/06/23 21:22:28;;;;;;;69.15;13.72;;;;;;;26.49;59.01;99200.23;1854651;76;38708;-64
2021/06/23 21:25:16;;;;;;;69.15;10.80;;;;;;;26.46;59.09;99208.33;1827849;78;21295;-64